Time;durP1;ratioP1;P1;durP2;ratioP2;P2;SDS_P1;SDS_P2;PMS_P1;PMS_P2;Temp;Humidity;BMP_temperature;BMP_pressure;BME280_temperature;BME280_humidity;BME280_pressure;Samples;Min_cycle;Max_cycle;Signal;HPM_P1;HPM_P2
2024/01/09 00:00:44;;;;;;;47.70;17.20;;;;;;;-12.38;100.00;102706.09;217712;1288;141762;-80
2024/01/09 00:05:44;;;;;;;49.40;17.70;;;;;;;-12.36;100.00;102711.42;218383;1288;140452;-80
2024/01/09 00:10:45;;;;;;;39.10;15.00;;;;;;;-12.37;100.00;102717.86;217875;1288;143064;-81
2024/01/09 00:15:45;;;;;;;46.60;17.70;;;;;;;-12.40;100.00;102723.52;218212;1287;140209;-81
2024/01/09 00:20:45;;;;;;;52.40;18.20;;;;;;;-12.41;100.00;102723.98;217845;1288;141832;-80
2024/01/09 00:25:46;;;;;;;38.80;16.00;;;;;;;-12.43;100.00;102729.73;218482;1288;96093;-79
2024/01/09 00:30:46;;;;;;;35.30;15.50;;;;;;;-12.45;100.00;102732.42;217855;1288;141411;-79
2024/01/09 00:35:47;;;;;;;36.40;16.10;;;;;;;-12.47;100.00;102733.52;218374;1288;140751;-79
2024/01/09 00:40:47;;;;;;;44.60;18.20;;;;;;;-12.47;100.00;102734.61;217868;1288;141059;-79
2024/01/09 00:45:48;;;;;;;38.30;14.70;;;;;;;-12.51;100.00;102745.93;218324;1288;140151;-80
2024/01/09 00:50:48;;;;;;;39.00;15.50;;;;;;;-12.48;100.00;102745.45;217820;1289;141970;-80
2024/01/09 00:55:49;;;;;;;46.20;15.30;;;;;;;-12.51;100.00;102749.67;218501;1288;96100;-80
2024/01/09 01:00:49;;;;;;;47.80;18.80;;;;;;;-12.59;100.00;102756.59;217885;1289;141632;-80
2024/01/09 01:05:49;;;;;;;47.00;17.30;;;;;;;-12.60;100.00;102753.84;218507;1289;140317;-80
2024/01/09 01:10:50;;;;;;;45.80;16.20;;;;;;;-12.60;100.00;102751.66;217942;1288;141447;-80
2024/01/09 01:15:50;;;;;;;44.10;16.90;;;;;;;-12.62;100.00;102758.77;218439;1288;140219;-80
2024/01/09 01:20:51;;;;;;;49.10;18.00;;;;;;;-12.59;100.00;102753.28;217926;1288;141628;-80
2024/01/09 01:25:51;;;;;;;56.10;23.30;;;;;;;-12.55;100.00;102760.36;218605;1288;96217;-80
2024/01/09 01:30:52;;;;;;;53.10;20.00;;;;;;;-12.55;100.00;102759.92;217916;1287;141290;-80
2024/01/09 01:35:52;;;;;;;54.60;18.40;;;;;;;-12.58;100.00;102757.39;218492;1288;140181;-80
2024/01/09 01:40:52;;;;;;;47.70;17.80;;;;;;;-12.62;100.00;102764.22;217963;1288;141820;-80
2024/01/09 01:45:53;;;;;;;42.20;17.90;;;;;;;-12.68;100.00;102771.20;218486;1288;140256;-80
2024/01/09 01:50:54;;;;;;;37.40;16.50;;;;;;;-12.70;100.00;102774.81;217968;1288;140972;-79
2024/01/09 01:55:55;;;;;;;49.00;19.00;;;;;;;-12.72;100.00;102775.91;218627;1288;95985;-80
2024/01/09 02:00:55;;;;;;;39.30;18.30;;;;;;;-12.76;100.00;102777.37;217941;1288;141220;-80
2024/01/09 02:05:56;;;;;;;51.80;18.20;;;;;;;-12.76;100.00;102777.29;218496;1288;140934;-80
2024/01/09 02:10:57;;;;;;;53.90;20.00;;;;;;;-12.76;100.00;102779.16;217909;1288;141088;-80
2024/01/09 02:15:58;;;;;;;50.30;18.50;;;;;;;-12.73;100.00;102776.05;218529;1288;140443;-80
2024/01/09 02:20:58;;;;;;;55.10;22.30;;;;;;;-12.73;100.00;102776.05;217922;1288;141717;-80
2024/01/09 02:25:59;;;;;;;42.10;16.30;;;;;;;-12.73;100.00;102771.60;218595;1288;96248;-80
2024/01/09 02:31:00;;;;;;;61.90;24.30;;;;;;;-12.74;100.00;102766.06;217893;1288;141136;-80
2024/01/09 02:36:00;;;;;;;81.00;29.00;;;;;;;-12.70;100.00;102762.11;218427;1288;140700;-80
2024/01/09 02:41:01;;;;;;;63.30;23.10;;;;;;;-12.68;100.00;102767.88;217710;1288;143678;-80
2024/01/09 02:46:01;;;;;;;65.60;26.80;;;;;;;-12.68;100.00;102766.00;218394;1288;140741;-80
2024/01/09 02:51:02;;;;;;;70.40;26.40;;;;;;;-12.65;100.00;102765.09;217874;1287;141257;-80
2024/01/09 02:56:02;;;;;;;55.90;21.30;;;;;;;-12.59;100.00;102758.17;218424;1287;96035;-80
2024/01/09 03:01:03;;;;;;;56.30;23.70;;;;;;;-12.58;100.00;102751.84;218001;1288;140945;-80
2024/01/09 03:06:03;;;;;;;66.60;23.30;;;;;;;-12.62;100.00;102755.54;218293;1290;140614;-80
2024/01/09 03:11:04;;;;;;;61.20;23.60;;;;;;;-12.61;100.00;102753.84;217947;1288;141257;-80
2024/01/09 03:16:12;;;;;;;72.10;27.60;;;;;;;-12.60;100.00;102752.45;218519;1288;140282;-80
2024/01/09 03:21:13;;;;;;;80.50;28.60;;;;;;;-12.61;100.00;102748.23;217826;1288;141075;-80
2024/01/09 03:26:14;;;;;;;63.30;25.90;;;;;;;-12.60;100.00;102745.77;218529;1288;140155;-80
2024/01/09 03:31:21;;;;;;;85.80;33.50;;;;;;;-12.64;100.00;102752.89;217946;1288;141232;-79
2024/01/09 03:36:23;;;;;;;89.00;28.90;;;;;;;-12.66;100.00;102747.52;218531;1288;139842;-79
2024/01/09 03:41:23;;;;;;;70.80;26.90;;;;;;;-12.62;100.00;102745.69;217892;1288;141188;-79
2024/01/09 03:46:24;;;;;;;63.90;24.70;;;;;;;-12.58;100.00;102741.14;218481;1288;140844;-79
2024/01/09 03:51:24;;;;;;;57.90;22.80;;;;;;;-12.53;100.00;102737.59;217711;1288;140878;-79
2024/01/09 03:56:24;;;;;;;65.40;24.30;;;;;;;-12.52;100.00;102737.42;218404;1288;140388;-79
2024/01/09 04:01:25;;;;;;;70.20;27.00;;;;;;;-12.52;100.00;102739.52;218110;1287;141556;-79
2024/01/09 04:06:25;;;;;;;80.00;27.90;;;;;;;-12.51;100.00;102747.75;218553;1287;139982;-79
2024/01/09 04:11:26;;;;;;;53.60;24.50;;;;;;;-12.47;100.00;102758.45;217947;1288;140938;-79
2024/01/09 04:16:26;;;;;;;51.60;22.40;;;;;;;-12.46;100.00;102765.45;218534;1288;140100;-79
2024/01/09 04:21:27;;;;;;;50.80;22.10;;;;;;;-12.49;100.00;102768.17;217973;1288;141088;-80
2024/01/09 04:26:27;;;;;;;59.60;22.90;;;;;;;-12.48;100.00;102758.75;218531;1288;140461;-79
2024/01/09 04:31:27;;;;;;;58.80;20.50;;;;;;;-12.49;100.00;102753.33;218114;1288;140479;-79
2024/01/09 04:36:28;;;;;;;56.00;22.80;;;;;;;-12.49;100.00;102750.93;218568;1288;140645;-80
2024/01/09 04:41:28;;;;;;;63.80;22.90;;;;;;;-12.52;100.00;102742.05;217990;1288;140948;-79
2024/01/09 04:46:29;;;;;;;61.30;25.30;;;;;;;-12.56;100.00;102732.55;218384;1288;140415;-79
2024/01/09 04:51:30;;;;;;;74.20;24.50;;;;;;;-12.64;100.00;102729.79;217987;1290;141197;-80
2024/01/09 04:56:31;;;;;;;64.30;26.70;;;;;;;-12.76;100.00;102734.42;218322;1288;140846;-80
2024/01/09 05:01:31;;;;;;;66.00;25.00;;;;;;;-12.79;100.00;102746.53;218097;1288;141095;-79
2024/01/09 05:06:31;;;;;;;117.30;37.70;;;;;;;-12.79;100.00;102743.80;218339;1289;140032;-79
2024/01/09 05:11:32;;;;;;;219.50;63.10;;;;;;;-12.75;100.00;102743.09;218033;1287;141614;-79
2024/01/09 05:16:32;;;;;;;303.20;72.40;;;;;;;-12.75;100.00;102749.70;218527;1287;140365;-79
2024/01/09 05:21:33;;;;;;;359.80;98.50;;;;;;;-12.74;100.00;102749.93;218065;1287;141887;-79
2024/01/09 05:26:33;;;;;;;377.80;107.10;;;;;;;-12.75;100.00;102744.03;218498;1288;140813;-80
2024/01/09 05:31:33;;;;;;;161.10;43.90;;;;;;;-12.70;100.00;102738.63;218136;1288;141220;-79
2024/01/09 05:36:34;;;;;;;78.50;27.30;;;;;;;-12.73;100.00;102736.60;218542;1288;141674;-79
2024/01/09 05:41:35;;;;;;;79.30;28.00;;;;;;;-12.80;100.00;102735.06;218060;1287;141152;-79
2024/01/09 05:46:35;;;;;;;68.30;24.50;;;;;;;-12.79;100.00;102727.91;218577;1287;140305;-79
2024/01/09 05:51:36;;;;;;;62.50;24.70;;;;;;;-12.82;100.00;102723.17;218047;1287;140998;-80
2024/01/09 05:56:37;;;;;;;108.40;36.80;;;;;;;-12.85;100.00;102720.83;218566;1288;140524;-80
2024/01/09 06:01:37;;;;;;;92.30;30.50;;;;;;;-12.83;100.00;102716.20;218105;1287;142634;-79
2024/01/09 06:06:38;;;;;;;82.50;30.80;;;;;;;-12.85;100.00;102715.89;218529;1288;140691;-79
2024/01/09 06:11:38;;;;;;;151.40;49.30;;;;;;;-12.85;100.00;102724.34;218012;1287;141882;-80
2024/01/09 06:16:39;;;;;;;137.30;44.00;;;;;;;-12.83;100.00;102736.73;218529;1288;140445;-80
2024/01/09 06:21:39;;;;;;;157.50;52.10;;;;;;;-12.89;100.00;102750.30;218022;1288;141245;-79
2024/01/09 06:26:40;;;;;;;130.90;46.60;;;;;;;-12.91;100.00;102754.97;218558;1287;140853;-80
2024/01/09 06:31:40;;;;;;;101.20;40.40;;;;;;;-12.90;100.00;102762.02;217904;1287;141641;-80
2024/01/09 06:36:45;;;;;;;89.50;34.10;;;;;;;-12.86;100.00;102764.30;218429;1288;140334;-79
2024/01/09 06:41:45;;;;;;;169.10;46.70;;;;;;;-12.83;100.00;102767.45;217907;1287;141006;-79
2024/01/09 06:46:46;;;;;;;175.40;61.40;;;;;;;-12.80;100.00;102767.64;218398;1288;141435;-79
2024/01/09 06:51:46;;;;;;;110.30;40.10;;;;;;;-12.82;100.00;102774.07;218029;1288;141858;-80
2024/01/09 06:56:47;;;;;;;79.20;31.20;;;;;;;-12.86;100.00;102776.59;218563;1287;140835;-80
2024/01/09 07:01:47;;;;;;;75.40;28.60;;;;;;;-12.83;100.00;102783.21;217913;1288;141317;-79
2024/01/09 07:06:48;;;;;;;68.50;26.60;;;;;;;-12.82;100.00;102785.18;218447;1288;140330;-80
2024/01/09 07:11:48;;;;;;;101.20;39.70;;;;;;;-12.82;100.00;102786.96;217866;1290;141095;-80
2024/01/09 07:16:49;;;;;;;114.00;42.30;;;;;;;-12.79;100.00;102789.80;218453;1288;140633;-80
2024/01/09 07:21:49;;;;;;;123.00;41.70;;;;;;;-12.77;100.00;102792.42;217964;1288;142516;-80
2024/01/09 07:26:50;;;;;;;114.00;46.70;;;;;;;-12.77;100.00;102796.80;218540;1288;141006;-78
2024/01/09 07:31:51;;;;;;;102.20;38.60;;;;;;;-12.80;100.00;102803.29;218022;1289;141399;-79
2024/01/09 07:36:52;;;;;;;99.90;39.10;;;;;;;-12.79;100.00;102795.21;218393;1288;140755;-79
2024/01/09 07:41:52;;;;;;;92.50;36.30;;;;;;;-12.74;100.00;102795.40;217939;1288;141363;-79
2024/01/09 07:46:53;;;;;;;96.30;33.00;;;;;;;-12.71;100.00;102808.92;218436;1289;140760;-80
2024/01/09 07:51:53;;;;;;;92.60;37.10;;;;;;;-12.70;100.00;102807.20;217676;1288;143372;-80
2024/01/09 07:56:54;;;;;;;102.60;39.30;;;;;;;-12.64;100.00;102812.29;218499;1288;141001;-80
2024/01/09 08:01:54;;;;;;;92.70;41.00;;;;;;;-12.55;100.00;102803.59;218059;1288;142071;-80
2024/01/09 08:06:55;;;;;;;85.30;33.50;;;;;;;-12.48;100.00;102801.91;218361;1287;140304;-80
2024/01/09 08:11:55;;;;;;;94.20;38.00;;;;;;;-12.38;100.00;102801.62;217978;1288;141663;-80
2024/01/09 08:16:56;;;;;;;80.30;32.20;;;;;;;-12.22;100.00;102800.68;218341;1287;141391;-80
2024/01/09 08:21:56;;;;;;;72.70;30.50;;;;;;;-12.05;100.00;102808.08;217894;1288;141309;-80
2024/01/09 08:26:57;;;;;;;71.30;32.30;;;;;;;-11.91;100.00;102810.98;218552;1289;140686;-80
2024/01/09 08:31:57;;;;;;;73.10;28.30;;;;;;;-11.79;100.00;102812.67;218103;1287;140352;-80
2024/01/09 08:36:58;;;;;;;95.90;34.30;;;;;;;-11.59;100.00;102816.62;218452;1288;140482;-81
2024/01/09 08:41:58;;;;;;;103.50;38.20;;;;;;;-11.32;100.00;102825.33;217997;1288;141286;-80
2024/01/09 08:46:59;;;;;;;88.20;37.10;;;;;;;-11.05;100.00;102831.48;218413;1288;140707;-79
2024/01/09 08:51:59;;;;;;;100.70;42.10;;;;;;;-10.78;100.00;102829.58;217907;1288;141198;-80
2024/01/09 08:57:00;;;;;;;104.90;40.40;;;;;;;-10.46;100.00;102833.30;218304;1288;140267;-80
2024/01/09 09:02:01;;;;;;;104.30;37.80;;;;;;;-10.31;100.00;102835.08;217784;1288;141898;-80
2024/01/09 09:07:01;;;;;;;96.90;38.10;;;;;;;-10.18;100.00;102833.10;218165;1288;142037;-80
2024/01/09 09:12:03;;;;;;;89.70;37.90;;;;;;;-10.05;100.00;102835.64;217800;1288;141035;-79
2024/01/09 09:17:04;;;;;;;98.80;40.20;;;;;;;-9.91;100.00;102846.85;218182;1288;140720;-80
2024/01/09 09:22:04;;;;;;;97.40;40.20;;;;;;;-9.80;100.00;102850.58;218002;1288;140611;-80
2024/01/09 09:27:05;;;;;;;76.20;32.50;;;;;;;-9.63;100.00;102849.39;218448;1290;140550;-80
2024/01/09 09:32:05;;;;;;;87.10;34.60;;;;;;;-9.46;100.00;102844.63;218066;1288;141536;-80
2024/01/09 09:37:06;;;;;;;72.60;33.30;;;;;;;-9.14;100.00;102843.27;218450;1289;139860;-80
2024/01/09 09:42:08;;;;;;;91.30;36.10;;;;;;;-8.88;100.00;102836.40;217971;1289;141006;-80
2024/01/09 09:47:09;;;;;;;103.10;41.10;;;;;;;-8.65;100.00;102831.25;218361;1289;274256;-80
2024/01/09 09:52:09;;;;;;;85.80;37.10;;;;;;;-8.49;100.00;102834.30;218074;1290;141292;-80
2024/01/09 09:57:10;;;;;;;90.40;39.90;;;;;;;-8.40;100.00;102827.07;218442;1289;139929;-80
2024/01/09 10:02:20;;;;;;;94.40;41.10;;;;;;;-8.33;100.00;102822.19;217767;1289;140985;-80
2024/01/09 10:07:22;;;;;;;93.00;39.30;;;;;;;-8.29;100.00;102819.42;218588;1288;95845;-80
2024/01/09 10:12:24;;;;;;;94.50;37.20;;;;;;;-8.24;100.00;102808.23;217917;1288;140465;-80
2024/01/09 10:17:25;;;;;;;83.80;34.70;;;;;;;-8.18;100.00;102807.96;218543;1288;140772;-80
2024/01/09 10:22:29;;;;;;;94.20;36.90;;;;;;;-8.12;100.00;102806.75;217831;1288;140797;-81
2024/01/09 10:27:30;;;;;;;87.60;35.90;;;;;;;-8.04;100.00;102800.09;218542;1287;139963;-81
2024/01/09 10:32:34;;;;;;;80.00;36.10;;;;;;;-8.03;99.98;102806.51;218041;1290;141467;-81
2024/01/09 10:37:35;;;;;;;89.70;36.70;;;;;;;-7.97;100.00;102804.66;218468;1288;96620;-81
2024/01/09 10:42:45;;;;;;;92.00;34.30;;;;;;;-7.85;100.00;102801.77;217988;1288;141024;-81
2024/01/09 10:47:46;;;;;;;75.00;32.40;;;;;;;-7.77;99.72;102800.23;218234;1290;139988;-81
2024/01/09 10:52:48;;;;;;;80.40;36.60;;;;;;;-7.74;99.20;102792.02;217919;1289;141660;-81
2024/01/09 10:57:49;;;;;;;102.30;37.00;;;;;;;-7.64;99.44;102791.98;218415;1288;139576;-81
2024/01/09 11:02:49;;;;;;;100.60;38.00;;;;;;;-7.57;99.24;102788.84;217948;1287;140954;-81
2024/01/09 11:07:52;;;;;;;90.70;36.40;;;;;;;-7.49;99.38;102785.27;218595;1288;96026;-81
2024/01/09 11:12:54;;;;;;;93.50;39.10;;;;;;;-7.36;99.66;102783.05;217912;1288;140946;-81
2024/01/09 11:18:03;;;;;;;81.80;33.50;;;;;;;-7.23;99.23;102779.46;218548;1289;139380;-81
2024/01/09 11:23:04;;;;;;;92.30;37.40;;;;;;;-7.14;98.57;102772.89;217964;1288;139890;-81
2024/01/09 11:28:06;;;;;;;102.10;38.90;;;;;;;-7.07;97.83;102765.30;218610;1289;140768;-81
2024/01/09 11:33:27;;;;;;;85.10;34.80;;;;;;;-7.00;97.43;102761.12;218040;1289;140857;-81
2024/01/09 11:38:28;;;;;;;90.40;37.70;;;;;;;-6.92;97.87;102759.68;218323;1289;139608;-81
2024/01/09 11:43:29;;;;;;;90.90;35.30;;;;;;;-6.82;97.33;102759.19;218112;1289;140423;-81
2024/01/09 11:48:30;;;;;;;104.60;39.30;;;;;;;-6.76;96.02;102751.82;218545;1287;139602;-82
2024/01/09 11:53:30;;;;;;;95.80;42.10;;;;;;;-6.66;97.40;102752.19;217972;1289;141271;-81
2024/01/09 11:58:30;;;;;;;90.40;35.40;;;;;;;-6.54;96.55;102749.65;218563;1288;139715;-81
2024/01/09 12:03:34;;;;;;;75.60;34.20;;;;;;;-6.48;97.02;102751.13;217869;1287;140148;-81
2024/01/09 12:08:35;;;;;;;85.60;36.00;;;;;;;-6.43;97.68;102738.56;218479;1288;140081;-81
2024/01/09 12:13:37;;;;;;;89.70;35.40;;;;;;;-6.38;97.48;102742.38;217878;1289;140984;-81
2024/01/09 12:18:54;;;;;;;76.00;35.00;;;;;;;-6.33;97.70;102735.05;218292;1289;139413;-81
2024/01/09 12:23:57;;;;;;;80.70;36.70;;;;;;;-6.26;96.99;102733.60;217605;1288;140812;-81
2024/01/09 12:28:58;;;;;;;72.70;31.60;;;;;;;-6.20;96.14;102723.40;218260;1288;139722;-81
2024/01/09 12:33:59;;;;;;;83.20;32.40;;;;;;;-6.14;95.32;102724.63;217677;1288;141070;-81
2024/01/09 12:38:59;;;;;;;75.90;31.20;;;;;;;-6.10;94.92;102724.41;218421;1288;140251;-81
2024/01/09 12:44:11;;;;;;;75.00;32.10;;;;;;;-6.05;93.71;102719.06;217960;1288;141250;-82
2024/01/09 12:49:12;;;;;;;78.10;32.00;;;;;;;-5.98;94.44;102713.70;218266;1287;139361;-81
2024/01/09 12:54:18;;;;;;;69.30;30.90;;;;;;;-5.93;93.69;102708.36;217944;1288;140843;-81
2024/01/09 12:59:22;;;;;;;73.90;29.60;;;;;;;-5.89;93.56;102705.63;218471;1287;139688;-80
2024/01/09 13:04:23;;;;;;;75.00;32.40;;;;;;;-5.84;94.02;102713.16;217825;1287;140711;-81
2024/01/09 13:09:24;;;;;;;72.00;29.10;;;;;;;-5.78;93.41;102713.35;218409;1287;139755;-80
2024/01/09 13:14:27;;;;;;;66.80;29.80;;;;;;;-5.73;93.07;102714.00;217857;1288;141075;-80
2024/01/09 13:19:27;;;;;;;69.60;30.90;;;;;;;-5.69;92.82;102716.50;218337;1287;96673;-81
2024/01/09 13:24:28;;;;;;;68.30;30.30;;;;;;;-5.68;92.60;102716.71;218025;1288;140118;-80
2024/01/09 13:29:28;;;;;;;64.50;29.50;;;;;;;-5.66;92.62;102714.64;218502;1288;139890;-81
2024/01/09 13:34:28;;;;;;;82.80;34.30;;;;;;;-5.66;92.74;102709.44;217988;1287;141841;-82
2024/01/09 13:39:29;;;;;;;85.70;34.90;;;;;;;-5.64;92.21;102709.18;218512;1288;140264;-81
2024/01/09 13:44:29;;;;;;;84.30;36.60;;;;;;;-5.63;91.60;102706.54;217949;1287;140016;-82
2024/01/09 13:49:30;;;;;;;78.50;35.70;;;;;;;-5.61;91.50;102706.40;218644;1287;96546;-81
2024/01/09 13:54:30;;;;;;;80.10;33.40;;;;;;;-5.61;91.12;102705.90;217994;1289;139924;-81
2024/01/09 13:59:31;;;;;;;77.30;31.20;;;;;;;-5.61;90.89;102707.68;218570;1288;139493;-82
2024/01/09 14:04:31;;;;;;;82.10;30.10;;;;;;;-5.61;90.74;102702.07;217941;1288;140285;-82
2024/01/09 14:09:33;;;;;;;76.20;31.10;;;;;;;-5.64;90.72;102699.02;218430;1288;140156;-82
2024/01/09 14:14:34;;;;;;;75.60;33.10;;;;;;;-5.65;91.04;102689.88;217901;1288;140719;-82
2024/01/09 14:19:34;;;;;;;76.30;32.70;;;;;;;-5.66;91.20;102684.92;218527;1288;96396;-81
2024/01/09 14:24:35;;;;;;;78.20;35.10;;;;;;;-5.67;90.99;102687.70;217974;1287;141379;-81
2024/01/09 14:29:37;;;;;;;126.70;56.70;;;;;;;-5.72;90.69;102680.10;218510;1288;139864;-81
2024/01/09 14:34:38;;;;;;;81.10;38.40;;;;;;;-5.80;90.57;102672.90;217954;1287;141473;-81
2024/01/09 14:39:40;;;;;;;94.60;38.70;;;;;;;-5.88;90.69;102669.45;218469;1287;139698;-81
2024/01/09 14:44:40;;;;;;;83.30;35.90;;;;;;;-5.94;91.42;102666.46;217962;1287;141123;-81
2024/01/09 14:49:41;;;;;;;106.80;47.90;;;;;;;-6.00;91.53;102665.67;218617;1287;96062;-80
2024/01/09 14:54:42;;;;;;;100.90;43.40;;;;;;;-6.06;91.91;102660.97;218007;1288;140652;-81
2024/01/09 14:59:44;;;;;;;100.10;43.70;;;;;;;-6.12;91.82;102658.77;218457;1288;139825;-81
2024/01/09 15:04:44;;;;;;;92.30;40.80;;;;;;;-6.19;92.48;102658.75;217940;1289;140951;-81
2024/01/09 15:09:48;;;;;;;95.60;43.40;;;;;;;-6.30;93.06;102665.89;218513;1288;139576;-81
2024/01/09 15:14:49;;;;;;;103.20;43.30;;;;;;;-6.45;93.02;102663.23;218043;1289;153759;-81
2024/01/09 15:19:49;;;;;;;92.30;39.60;;;;;;;-6.57;93.32;102665.65;218272;1288;139595;-81
2024/01/09 15:24:49;;;;;;;90.20;40.00;;;;;;;-6.67;94.19;102670.73;218284;1287;140467;-81
2024/01/09 15:29:51;;;;;;;103.90;42.90;;;;;;;-6.72;94.47;102671.45;218112;1288;139523;-82
2024/01/09 15:34:52;;;;;;;106.90;43.60;;;;;;;-6.81;94.67;102667.56;218399;1288;139870;-82
2024/01/09 15:39:53;;;;;;;115.70;45.60;;;;;;;-6.95;94.67;102667.83;217995;1288;140905;-81
2024/01/09 15:44:53;;;;;;;114.00;46.80;;;;;;;-7.00;95.38;102663.23;218335;1288;140696;-81
2024/01/09 15:49:53;;;;;;;105.30;44.50;;;;;;;-7.10;95.26;102662.77;217892;1287;142417;-81
2024/01/09 15:54:54;;;;;;;111.70;45.40;;;;;;;-7.22;95.36;102657.59;218300;1288;139698;-82
2024/01/09 15:59:54;;;;;;;115.80;47.00;;;;;;;-7.36;96.16;102657.59;217800;1288;142118;-82
2024/01/09 16:04:57;;;;;;;121.60;50.50;;;;;;;-7.43;96.28;102655.20;218223;1288;140122;-83
2024/01/09 16:09:58;;;;;;;128.40;52.40;;;;;;;-7.43;96.49;102655.52;217836;1287;141527;-82
2024/01/09 16:14:58;;;;;;;128.80;56.20;;;;;;;-7.48;96.55;102651.77;218475;1287;140047;-82
2024/01/09 16:19:59;;;;;;;140.20;64.60;;;;;;;-7.47;96.90;102647.59;217856;1288;140978;-82
2024/01/09 16:24:59;;;;;;;163.60;66.50;;;;;;;-7.48;96.78;102643.08;218508;1287;140512;-82
2024/01/09 16:30:00;;;;;;;147.60;58.80;;;;;;;-7.47;96.97;102643.27;217936;1287;141884;-83
2024/01/09 16:35:00;;;;;;;139.70;58.90;;;;;;;-7.52;97.03;102646.46;218495;1288;140110;-83
2024/01/09 16:40:00;;;;;;;151.00;62.10;;;;;;;-7.60;97.22;102647.48;217959;1287;140825;-82
2024/01/09 16:45:01;;;;;;;177.90;74.00;;;;;;;-7.64;97.43;102653.33;218427;1288;140145;-83
2024/01/09 16:50:01;;;;;;;166.60;65.50;;;;;;;-7.70;97.67;102655.09;218123;1287;142291;-83
2024/01/09 16:55:02;;;;;;;140.80;60.40;;;;;;;-7.75;97.83;102662.56;218478;1288;139747;-82
2024/01/09 17:00:04;;;;;;;128.50;55.40;;;;;;;-7.83;98.24;102669.48;217996;1287;140682;-82
2024/01/09 17:05:04;;;;;;;131.00;56.10;;;;;;;-7.90;98.40;102674.24;218314;1288;140005;-83
2024/01/09 17:10:05;;;;;;;136.10;55.90;;;;;;;-7.94;98.51;102675.27;217906;1288;141215;-82
2024/01/09 17:15:06;;;;;;;131.50;57.00;;;;;;;-7.92;98.58;102672.15;218425;1288;139889;-82
2024/01/09 17:20:07;;;;;;;146.30;61.40;;;;;;;-7.90;98.68;102672.30;218047;1288;141008;-82
2024/01/09 17:25:10;;;;;;;164.90;63.70;;;;;;;-7.96;98.83;102681.27;218327;1288;139699;-82
2024/01/09 17:30:11;;;;;;;187.20;71.60;;;;;;;-8.06;98.89;102683.48;217741;1287;141905;-82
2024/01/09 17:35:12;;;;;;;189.60;71.20;;;;;;;-8.08;99.01;102678.45;218213;1287;140152;-82
2024/01/09 17:40:13;;;;;;;194.60;72.30;;;;;;;-8.20;99.09;102675.92;217918;1288;142329;-82
2024/01/09 17:45:16;;;;;;;199.70;80.50;;;;;;;-8.29;99.32;102665.22;218322;1287;139883;-82
2024/01/09 17:50:18;;;;;;;181.50;71.90;;;;;;;-8.32;99.90;102658.43;217928;1287;141039;-82
2024/01/09 17:55:19;;;;;;;186.90;75.60;;;;;;;-8.42;99.76;102659.69;218538;1288;95966;-82
2024/01/09 18:00:20;;;;;;;183.00;69.40;;;;;;;-8.45;99.95;102658.29;217950;1287;140683;-83
2024/01/09 18:05:21;;;;;;;194.10;72.40;;;;;;;-8.50;99.91;102656.41;218366;1287;141014;-83
2024/01/09 18:10:21;;;;;;;199.60;74.90;;;;;;;-8.49;100.00;102656.61;217850;1288;141264;-82
2024/01/09 18:15:22;;;;;;;192.00;78.90;;;;;;;-8.51;99.97;102647.08;218434;1290;140094;-82
2024/01/09 18:20:22;;;;;;;199.50;78.20;;;;;;;-8.58;99.98;102646.73;217925;1289;141263;-82
2024/01/09 18:25:22;;;;;;;199.20;80.70;;;;;;;-8.59;100.00;102641.80;218388;1287;96158;-83
2024/01/09 18:30:24;;;;;;;212.60;81.90;;;;;;;-8.61;100.00;102632.83;217802;1287;140875;-83
2024/01/09 18:35:27;;;;;;;194.50;79.10;;;;;;;-8.72;100.00;102628.38;218477;1288;140614;-83
2024/01/09 18:40:30;;;;;;;209.30;85.60;;;;;;;-8.76;100.00;102626.14;217689;1289;141708;-83
2024/01/09 18:45:30;;;;;;;203.30;81.90;;;;;;;-8.80;100.00;102626.77;218367;1287;140209;-81
2024/01/09 18:50:31;;;;;;;186.20;84.40;;;;;;;-8.86;100.00;102624.36;217749;1288;141054;-82
2024/01/09 18:55:35;;;;;;;189.50;81.00;;;;;;;-8.96;100.00;102622.77;218698;1283;97256;-91
2024/01/09 19:00:37;;;;;;;202.60;85.80;;;;;;;-9.05;100.00;102621.32;217670;1289;141104;-81
2024/01/09 19:05:39;;;;;;;205.30;87.70;;;;;;;-9.02;100.00;102615.92;218353;1289;141121;-82
2024/01/09 19:10:41;;;;;;;202.60;82.60;;;;;;;-9.01;100.00;102617.77;217658;1290;141535;-84
2024/01/09 19:15:41;;;;;;;205.20;86.40;;;;;;;-9.03;100.00;102614.20;218205;1289;140226;-81
2024/01/09 19:20:42;;;;;;;208.80;85.80;;;;;;;-9.05;100.00;102619.28;217855;1288;141647;-81
2024/01/09 19:25:43;;;;;;;203.90;85.90;;;;;;;-9.13;100.00;102622.30;218458;1289;95912;-82
2024/01/09 19:30:45;;;;;;;211.60;84.50;;;;;;;-9.18;100.00;102625.30;217790;1288;141046;-82
2024/01/09 19:35:45;;;;;;;221.90;91.00;;;;;;;-9.18;100.00;102631.02;218374;1289;140159;-80
2024/01/09 19:40:46;;;;;;;226.50;94.50;;;;;;;-9.21;100.00;102635.73;217806;1289;141730;-80
2024/01/09 19:45:47;;;;;;;218.70;90.70;;;;;;;-9.26;100.00;102635.59;218221;1290;140049;-81
2024/01/09 19:50:48;;;;;;;168.20;71.00;;;;;;;-9.37;100.00;102640.49;217647;1290;140726;-81
2024/01/09 19:55:48;;;;;;;205.40;84.70;;;;;;;-9.44;100.00;102634.49;218394;1288;95960;-81
2024/01/09 20:00:49;;;;;;;212.30;87.90;;;;;;;-9.42;100.00;102630.29;217871;1289;141284;-83
2024/01/09 20:05:50;;;;;;;205.80;90.80;;;;;;;-9.42;100.00;102630.85;218357;1288;139717;-84
2024/01/09 20:10:52;;;;;;;205.00;87.90;;;;;;;-9.42;100.00;102628.22;217676;1290;141474;-82
2024/01/09 20:15:53;;;;;;;238.70;93.40;;;;;;;-9.46;100.00;102624.34;218158;1287;140594;-81
2024/01/09 20:20:53;;;;;;;249.30;97.60;;;;;;;-9.52;100.00;102624.86;217865;1290;142480;-82
2024/01/09 20:25:54;;;;;;;247.30;96.30;;;;;;;-9.56;100.00;102627.30;218489;1288;96367;-81
2024/01/09 20:30:55;;;;;;;211.20;90.60;;;;;;;-9.57;100.00;102624.66;217769;1289;141247;-80
2024/01/09 20:35:56;;;;;;;223.50;93.70;;;;;;;-9.57;100.00;102619.28;218359;1288;140541;-82
2024/01/09 20:40:56;;;;;;;246.50;101.20;;;;;;;-9.59;100.00;102623.23;218013;1287;140860;-81
2024/01/09 20:45:57;;;;;;;240.30;101.50;;;;;;;-9.62;100.00;102624.16;218486;1288;140092;-81
2024/01/09 20:50:58;;;;;;;237.10;101.00;;;;;;;-9.63;100.00;102615.95;217823;1287;141708;-81
2024/01/09 20:56:01;;;;;;;281.10;108.60;;;;;;;-9.63;100.00;102612.96;218612;1287;96159;-82
2024/01/09 21:01:01;;;;;;;277.30;116.80;;;;;;;-9.67;100.00;102614.23;218016;1288;141017;-82
2024/01/09 21:06:02;;;;;;;250.30;100.50;;;;;;;-9.71;100.00;102610.23;218555;1288;140821;-82
2024/01/09 21:11:02;;;;;;;221.50;92.30;;;;;;;-9.74;100.00;102607.73;217977;1288;142613;-81
2024/01/09 21:16:03;;;;;;;195.00;83.20;;;;;;;-9.71;100.00;102611.98;218524;1287;139966;-81
2024/01/09 21:21:05;;;;;;;197.40;86.60;;;;;;;-9.79;100.00;102607.02;217976;1288;141097;-81
2024/01/09 21:26:05;;;;;;;218.90;93.30;;;;;;;-9.81;100.00;102601.54;218628;1288;96012;-81
2024/01/09 21:58:41;;;;;;;207.10;84.60;;;;;;;-10.00;100.00;102601.64;191450;1285;101123;-81
2024/01/09 22:03:42;;;;;;;164.70;70.60;;;;;;;-9.97;100.00;102595.96;218216;1286;140781;-81
2024/01/09 22:08:42;;;;;;;153.60;61.10;;;;;;;-9.96;100.00;102588.73;218650;1286;139843;-81
2024/01/09 22:13:43;;;;;;;165.10;67.80;;;;;;;-9.99;100.00;102580.66;218370;1285;142465;-80
2024/01/09 22:18:43;;;;;;;148.60;66.20;;;;;;;-10.01;100.00;102586.31;218785;1287;140647;-81